RYR816C GMMX-EBCI
Flight info
| Callsign | RYR816C |
|---|---|
| Flight time | 3h 2m |
| Altitude | 34000 |
| Route | OBOGA UG850 VALBA UZ801 TOLSI UG5 KORIS DCT SVL DCT HIJ DCT PARKA DCT TLD DCT SIE DCT EDIGO DCT DGO/N0460F360 L176 LUSEM/N0457F340 DCT LULUT DCT ADABI DCT BOKNO UN858 VANAD UN874 BAMES UT191 PODEM UN873 BAZOS DCT BELDI DCT VEKIN Z173 ARVOL |
| Aircraft | B738/M-SDE2E3FGHIRWXY/LB1 |
Departure
| Time | 2026-05-07 09:09 |
|---|---|
| Airport | Marrakesh Menara Airport (GMMX) |
Arrival
| Time | 2026-05-07 12:11 |
|---|---|
| Airport | Brussels South Charleroi Airport (EBCI) |
| Time | Latitude | Longitude | Altitude | Speed | Heading |
|---|---|---|---|---|---|
| 2026-05-07 08:53 | 31.60300 | -8.02455 | 1539 ft | 0 kts | 186° |
| 2026-05-07 08:59 | 31.60318 | -8.02453 | 1539 ft | 4 kts | 186° |
| 2026-05-07 08:59 | 31.60345 | -8.02449 | 1539 ft | 4 kts | 186° |
| 2026-05-07 08:59 | 31.60365 | -8.02447 | 1543 ft | 4 kts | 191° |
| 2026-05-07 08:59 | 31.60391 | -8.02438 | 1539 ft | 4 kts | 211° |
| 2026-05-07 09:00 | 31.60408 | -8.02418 | 1548 ft | 4 kts | 259° |
| 2026-05-07 09:00 | 31.60409 | -8.02409 | 1548 ft | 1 kts | 276° |
| 2026-05-07 09:02 | 31.60409 | -8.02410 | 1548 ft | 1 kts | 276° |
| 2026-05-07 09:02 | 31.60412 | -8.02436 | 1539 ft | 7 kts | 276° |
| 2026-05-07 09:03 | 31.60418 | -8.02502 | 1542 ft | 8 kts | 276° |
| 2026-05-07 09:03 | 31.60425 | -8.02569 | 1548 ft | 8 kts | 276° |
| 2026-05-07 09:03 | 31.60431 | -8.02635 | 1548 ft | 8 kts | 276° |
| 2026-05-07 09:03 | 31.60435 | -8.02699 | 1548 ft | 8 kts | 273° |
| 2026-05-07 09:04 | 31.60442 | -8.02781 | 1539 ft | 12 kts | 275° |
| 2026-05-07 09:04 | 31.60451 | -8.02880 | 1548 ft | 12 kts | 276° |
| 2026-05-07 09:04 | 31.60459 | -8.02980 | 1545 ft | 14 kts | 276° |
| 2026-05-07 09:04 | 31.60471 | -8.03111 | 1542 ft | 17 kts | 276° |
| 2026-05-07 09:05 | 31.60483 | -8.03248 | 1548 ft | 17 kts | 276° |
| 2026-05-07 09:05 | 31.60494 | -8.03380 | 1547 ft | 16 kts | 276° |
| 2026-05-07 09:05 | 31.60505 | -8.03507 | 1547 ft | 16 kts | 276° |
| 2026-05-07 09:05 | 31.60517 | -8.03639 | 1543 ft | 17 kts | 276° |
| 2026-05-07 09:06 | 31.60530 | -8.03783 | 1543 ft | 18 kts | 276° |
| 2026-05-07 09:06 | 31.60543 | -8.03936 | 1538 ft | 19 kts | 276° |
| 2026-05-07 09:06 | 31.60558 | -8.04104 | 1538 ft | 22 kts | 276° |
| 2026-05-07 09:06 | 31.60575 | -8.04292 | 1547 ft | 23 kts | 276° |
| 2026-05-07 09:07 | 31.60592 | -8.04477 | 1543 ft | 22 kts | 275° |
| 2026-05-07 09:07 | 31.60607 | -8.04657 | 1547 ft | 22 kts | 276° |
| 2026-05-07 09:07 | 31.60622 | -8.04830 | 1546 ft | 19 kts | 276° |
| 2026-05-07 09:07 | 31.60636 | -8.04983 | 1546 ft | 19 kts | 276° |
| 2026-05-07 09:08 | 31.60649 | -8.05134 | 1546 ft | 18 kts | 276° |
| 2026-05-07 09:08 | 31.60675 | -8.05242 | 1541 ft | 13 kts | 321° |
| 2026-05-07 09:08 | 31.60778 | -8.05246 | 1534 ft | 19 kts | 8° |
| 2026-05-07 09:08 | 31.60820 | -8.05126 | 1531 ft | 20 kts | 96° |
| 2026-05-07 09:09 | 31.60787 | -8.04757 | 1530 ft | 80 kts | 96° |
| 2026-05-07 09:09 | 31.60709 | -8.03856 | 1539 ft | 141 kts | 95° |
| 2026-05-07 09:09 | 31.60597 | -8.02534 | 1746 ft | 174 kts | 96° |
| 2026-05-07 09:09 | 31.60456 | -8.01127 | 2548 ft | 177 kts | 102° |
| 2026-05-07 09:10 | 31.59936 | -7.99715 | 3090 ft | 197 kts | 114° |
| 2026-05-07 09:10 | 31.59307 | -7.98285 | 3823 ft | 202 kts | 115° |
| 2026-05-07 09:10 | 31.58675 | -7.96753 | 4193 ft | 215 kts | 115° |
| 2026-05-07 09:10 | 31.58016 | -7.95090 | 4446 ft | 234 kts | 113° |
| 2026-05-07 09:11 | 31.57352 | -7.93285 | 4865 ft | 246 kts | 113° |
| 2026-05-07 09:11 | 31.56674 | -7.91411 | 5509 ft | 251 kts | 111° |
| 2026-05-07 09:11 | 31.56405 | -7.89430 | 6263 ft | 253 kts | 84° |
| 2026-05-07 09:11 | 31.56972 | -7.87429 | 6909 ft | 261 kts | 57° |
| 2026-05-07 09:12 | 31.58239 | -7.85908 | 7564 ft | 264 kts | 29° |
| 2026-05-07 09:12 | 31.59933 | -7.85204 | 8210 ft | 263 kts | 1° |
| 2026-05-07 09:12 | 31.61758 | -7.85250 | 8949 ft | 263 kts | 354° |
| 2026-05-07 09:12 | 31.63595 | -7.85377 | 9661 ft | 265 kts | 353° |
| 2026-05-07 09:13 | 31.65446 | -7.85518 | 10333 ft | 267 kts | 353° |
| 2026-05-07 09:13 | 31.67310 | -7.85665 | 10979 ft | 269 kts | 353° |
| 2026-05-07 09:13 | 31.69189 | -7.85812 | 11611 ft | 272 kts | 352° |
| 2026-05-07 09:13 | 31.71092 | -7.85960 | 12262 ft | 274 kts | 352° |
| 2026-05-07 09:14 | 31.73001 | -7.86108 | 12909 ft | 276 kts | 352° |
| 2026-05-07 09:14 | 31.74930 | -7.86257 | 13560 ft | 279 kts | 352° |
| 2026-05-07 09:14 | 31.76851 | -7.86406 | 14150 ft | 281 kts | 352° |
| 2026-05-07 09:14 | 31.78817 | -7.86449 | 14712 ft | 288 kts | 5° |
| 2026-05-07 09:15 | 31.80712 | -7.85556 | 15208 ft | 305 kts | 31° |
| 2026-05-07 09:15 | 31.82286 | -7.83732 | 15361 ft | 330 kts | 47° |
| 2026-05-07 09:15 | 31.83780 | -7.81579 | 15530 ft | 349 kts | 48° |
| 2026-05-07 09:15 | 31.85385 | -7.79332 | 15666 ft | 367 kts | 45° |
| 2026-05-07 09:16 | 31.87135 | -7.77040 | 15798 ft | 385 kts | 44° |
| 2026-05-07 09:16 | 31.88985 | -7.74665 | 15915 ft | 402 kts | 44° |
| 2026-05-07 09:16 | 31.90913 | -7.72197 | 16024 ft | 417 kts | 44° |
| 2026-05-07 09:16 | 31.92900 | -7.69643 | 16264 ft | 427 kts | 45° |
| 2026-05-07 09:17 | 31.94912 | -7.67041 | 16715 ft | 431 kts | 45° |
| 2026-05-07 09:17 | 31.96932 | -7.64421 | 17229 ft | 432 kts | 45° |
| 2026-05-07 09:17 | 31.98959 | -7.61789 | 17671 ft | 436 kts | 45° |
| 2026-05-07 09:17 | 32.01007 | -7.59128 | 18116 ft | 439 kts | 45° |
| 2026-05-07 09:18 | 32.03063 | -7.56456 | 18547 ft | 441 kts | 44° |
| 2026-05-07 09:18 | 32.05135 | -7.53771 | 18956 ft | 443 kts | 43° |
| 2026-05-07 09:18 | 32.07485 | -7.51474 | 19323 ft | 438 kts | 25° |
| 2026-05-07 09:18 | 32.10279 | -7.50152 | 19751 ft | 430 kts | 9° |
| 2026-05-07 09:19 | 32.13181 | -7.49758 | 20197 ft | 423 kts | 355° |
| 2026-05-07 09:19 | 32.16128 | -7.49814 | 20604 ft | 425 kts | 354° |
| 2026-05-07 09:19 | 32.19093 | -7.49889 | 20978 ft | 428 kts | 354° |
| 2026-05-07 09:19 | 32.22082 | -7.49954 | 21382 ft | 429 kts | 355° |
| 2026-05-07 09:20 | 32.25075 | -7.50004 | 21792 ft | 431 kts | 355° |
| 2026-05-07 09:20 | 32.28079 | -7.50040 | 22192 ft | 433 kts | 355° |
| 2026-05-07 09:20 | 32.31103 | -7.50067 | 22579 ft | 435 kts | 355° |
| 2026-05-07 09:20 | 32.34136 | -7.50090 | 22953 ft | 436 kts | 355° |
| 2026-05-07 09:21 | 32.37179 | -7.50111 | 23315 ft | 438 kts | 355° |
| 2026-05-07 09:21 | 32.40235 | -7.50132 | 23669 ft | 440 kts | 355° |
| 2026-05-07 09:21 | 32.43302 | -7.50153 | 23961 ft | 442 kts | 355° |
| 2026-05-07 09:21 | 32.46384 | -7.50175 | 24272 ft | 443 kts | 355° |
| 2026-05-07 09:22 | 32.49470 | -7.50196 | 24595 ft | 444 kts | 355° |
| 2026-05-07 09:22 | 32.52571 | -7.50218 | 24901 ft | 445 kts | 355° |
| 2026-05-07 09:22 | 32.55678 | -7.50241 | 25208 ft | 447 kts | 355° |
| 2026-05-07 09:22 | 32.58790 | -7.50263 | 25502 ft | 448 kts | 355° |
| 2026-05-07 09:23 | 32.61911 | -7.50286 | 25781 ft | 449 kts | 355° |
| 2026-05-07 09:23 | 32.65045 | -7.50307 | 26059 ft | 451 kts | 355° |
| 2026-05-07 09:23 | 32.68186 | -7.50319 | 26352 ft | 452 kts | 354° |
| 2026-05-07 09:23 | 32.71333 | -7.50345 | 26611 ft | 453 kts | 354° |
| 2026-05-07 09:24 | 32.74494 | -7.50378 | 26878 ft | 455 kts | 354° |
| 2026-05-07 09:24 | 32.77660 | -7.50411 | 27182 ft | 455 kts | 354° |
| 2026-05-07 09:24 | 32.80818 | -7.50442 | 27587 ft | 452 kts | 354° |
| 2026-05-07 09:24 | 32.83956 | -7.50471 | 28043 ft | 449 kts | 354° |
| 2026-05-07 09:25 | 32.87033 | -7.50500 | 28476 ft | 447 kts | 354° |
| 2026-05-07 09:25 | 32.90140 | -7.50520 | 28870 ft | 445 kts | 354° |
| 2026-05-07 09:25 | 32.93234 | -7.50531 | 29264 ft | 444 kts | 354° |
| 2026-05-07 09:25 | 32.96316 | -7.50540 | 29719 ft | 442 kts | 354° |
| 2026-05-07 09:26 | 32.99386 | -7.50550 | 30144 ft | 439 kts | 354° |
| 2026-05-07 09:26 | 33.01444 | -7.50557 | 30380 ft | 438 kts | 354° |
| 2026-05-07 09:26 | 33.04454 | -7.50570 | 30662 ft | 438 kts | 354° |
| 2026-05-07 09:26 | 33.08534 | -7.50588 | 30997 ft | 438 kts | 354° |
| 2026-05-07 09:27 | 33.10554 | -7.50541 | 31191 ft | 441 kts | 358° |
| 2026-05-07 09:27 | 33.13612 | -7.50052 | 31502 ft | 447 kts | 7° |
| 2026-05-07 09:27 | 33.19626 | -7.48088 | 32097 ft | 448 kts | 9° |
| 2026-05-07 09:28 | 33.22628 | -7.47075 | 32343 ft | 448 kts | 9° |
| 2026-05-07 09:28 | 33.25621 | -7.46072 | 32613 ft | 447 kts | 9° |
| 2026-05-07 09:28 | 33.28618 | -7.45076 | 32907 ft | 446 kts | 9° |
| 2026-05-07 09:28 | 33.31606 | -7.44091 | 33185 ft | 445 kts | 9° |
| 2026-05-07 09:29 | 33.34595 | -7.43111 | 33423 ft | 445 kts | 9° |
| 2026-05-07 09:29 | 33.37585 | -7.42134 | 33674 ft | 444 kts | 9° |
| 2026-05-07 09:29 | 33.40563 | -7.41160 | 33955 ft | 443 kts | 9° |
| 2026-05-07 09:30 | 33.46545 | -7.39207 | 34018 ft | 446 kts | 9° |
| 2026-05-07 09:30 | 33.52502 | -7.37253 | 33999 ft | 441 kts | 8° |
| 2026-05-07 09:31 | 33.58371 | -7.35325 | 33995 ft | 438 kts | 8° |
| 2026-05-07 09:31 | 33.64241 | -7.33396 | 33995 ft | 436 kts | 8° |
| 2026-05-07 09:32 | 33.70092 | -7.31472 | 33992 ft | 435 kts | 8° |
| 2026-05-07 09:32 | 33.75940 | -7.29546 | 34015 ft | 437 kts | 8° |
| 2026-05-07 09:33 | 33.81820 | -7.27608 | 34011 ft | 438 kts | 8° |
| 2026-05-07 09:33 | 33.87720 | -7.25658 | 34006 ft | 440 kts | 8° |
| 2026-05-07 09:34 | 33.93641 | -7.23698 | 34006 ft | 442 kts | 8° |
| 2026-05-07 09:34 | 33.99587 | -7.21727 | 34018 ft | 443 kts | 8° |
| 2026-05-07 09:35 | 34.05548 | -7.19748 | 34007 ft | 445 kts | 8° |
| 2026-05-07 09:35 | 34.11507 | -7.17766 | 34001 ft | 444 kts | 8° |
| 2026-05-07 09:36 | 34.17463 | -7.15782 | 34001 ft | 444 kts | 8° |
| 2026-05-07 09:36 | 34.23418 | -7.13796 | 34002 ft | 443 kts | 8° |
| 2026-05-07 09:37 | 34.29318 | -7.11826 | 34019 ft | 443 kts | 8° |
| 2026-05-07 09:37 | 34.35253 | -7.09842 | 34009 ft | 442 kts | 8° |
| 2026-05-07 09:38 | 34.41174 | -7.07859 | 33999 ft | 441 kts | 8° |
| 2026-05-07 09:38 | 34.47077 | -7.05879 | 34001 ft | 440 kts | 8° |
| 2026-05-07 09:39 | 34.52967 | -7.03900 | 34002 ft | 439 kts | 8° |
| 2026-05-07 09:39 | 34.58856 | -7.01915 | 34005 ft | 440 kts | 9° |
| 2026-05-07 09:40 | 34.64554 | -6.98930 | 34001 ft | 450 kts | 19° |
| 2026-05-07 09:40 | 34.70131 | -6.95435 | 33996 ft | 451 kts | 19° |
| 2026-05-07 09:41 | 34.75718 | -6.91949 | 33984 ft | 451 kts | 19° |
| 2026-05-07 09:41 | 34.81311 | -6.88496 | 34015 ft | 451 kts | 19° |
| 2026-05-07 09:42 | 34.86923 | -6.85044 | 34001 ft | 452 kts | 19° |
| 2026-05-07 09:42 | 34.92506 | -6.81605 | 33994 ft | 453 kts | 19° |
| 2026-05-07 09:43 | 34.98131 | -6.78134 | 33978 ft | 452 kts | 19° |
| 2026-05-07 09:43 | 35.03751 | -6.74658 | 33981 ft | 452 kts | 19° |
| 2026-05-07 09:44 | 35.09352 | -6.71190 | 33988 ft | 451 kts | 19° |
| 2026-05-07 09:44 | 35.14949 | -6.67719 | 33974 ft | 450 kts | 19° |
| 2026-05-07 09:45 | 35.20529 | -6.64253 | 33973 ft | 449 kts | 19° |
| 2026-05-07 09:45 | 35.26100 | -6.60787 | 33975 ft | 448 kts | 19° |
| 2026-05-07 09:46 | 35.31622 | -6.57346 | 33972 ft | 448 kts | 19° |
| 2026-05-07 09:46 | 35.37177 | -6.53880 | 33970 ft | 448 kts | 19° |
| 2026-05-07 09:47 | 35.42726 | -6.50412 | 33961 ft | 447 kts | 19° |
| 2026-05-07 09:47 | 35.48258 | -6.46893 | 33959 ft | 448 kts | 20° |
| 2026-05-07 09:48 | 35.53756 | -6.43284 | 33969 ft | 448 kts | 20° |
| 2026-05-07 09:48 | 35.59247 | -6.39677 | 33975 ft | 447 kts | 20° |
| 2026-05-07 09:49 | 35.64737 | -6.36079 | 33954 ft | 447 kts | 20° |
| 2026-05-07 09:49 | 35.70229 | -6.32478 | 33952 ft | 447 kts | 20° |
| 2026-05-07 09:50 | 35.75717 | -6.28875 | 33954 ft | 446 kts | 20° |
| 2026-05-07 09:50 | 35.81196 | -6.25284 | 33957 ft | 445 kts | 19° |
| 2026-05-07 09:51 | 35.86880 | -6.22714 | 33962 ft | 429 kts | 5° |
| 2026-05-07 09:51 | 35.92702 | -6.21070 | 33970 ft | 429 kts | 5° |
| 2026-05-07 09:52 | 35.98484 | -6.19427 | 33966 ft | 430 kts | 5° |
| 2026-05-07 09:52 | 36.04317 | -6.17732 | 33969 ft | 430 kts | 5° |
| 2026-05-07 09:53 | 36.10149 | -6.16017 | 33995 ft | 431 kts | 5° |
| 2026-05-07 09:53 | 36.16003 | -6.14289 | 33975 ft | 432 kts | 5° |
| 2026-05-07 09:54 | 36.21860 | -6.12556 | 33953 ft | 433 kts | 5° |
| 2026-05-07 09:54 | 36.27724 | -6.10820 | 33959 ft | 433 kts | 5° |
| 2026-05-07 09:55 | 36.33582 | -6.09083 | 33954 ft | 433 kts | 5° |
| 2026-05-07 09:55 | 36.39458 | -6.07339 | 33954 ft | 434 kts | 5° |
| 2026-05-07 09:56 | 36.45321 | -6.05594 | 33948 ft | 433 kts | 5° |
| 2026-05-07 09:56 | 36.51174 | -6.03851 | 33945 ft | 432 kts | 5° |
| 2026-05-07 09:57 | 36.57017 | -6.02108 | 33947 ft | 432 kts | 5° |
| 2026-05-07 09:57 | 36.62822 | -6.00373 | 33955 ft | 432 kts | 5° |
| 2026-05-07 09:58 | 36.68652 | -5.98629 | 33952 ft | 431 kts | 5° |
| 2026-05-07 09:58 | 36.74476 | -5.96883 | 33935 ft | 430 kts | 5° |
| 2026-05-07 09:59 | 36.80286 | -5.95139 | 33944 ft | 429 kts | 5° |
| 2026-05-07 09:59 | 36.86086 | -5.93396 | 33965 ft | 428 kts | 5° |
| 2026-05-07 10:00 | 36.91886 | -5.91650 | 33948 ft | 429 kts | 5° |
| 2026-05-07 10:00 | 36.97700 | -5.89898 | 33939 ft | 430 kts | 5° |
| 2026-05-07 10:01 | 37.03517 | -5.88141 | 33934 ft | 430 kts | 5° |
| 2026-05-07 10:01 | 37.09344 | -5.86378 | 33974 ft | 431 kts | 5° |
| 2026-05-07 10:02 | 37.15190 | -5.84607 | 33941 ft | 433 kts | 5° |
| 2026-05-07 10:02 | 37.21014 | -5.82840 | 33926 ft | 434 kts | 5° |
| 2026-05-07 10:03 | 37.26896 | -5.81051 | 33939 ft | 435 kts | 5° |
| 2026-05-07 10:03 | 37.32786 | -5.79257 | 33938 ft | 435 kts | 5° |
| 2026-05-07 10:04 | 37.38684 | -5.77459 | 33948 ft | 437 kts | 6° |
| 2026-05-07 10:04 | 37.44548 | -5.75282 | 33924 ft | 449 kts | 16° |
| 2026-05-07 10:05 | 37.50199 | -5.71854 | 33941 ft | 452 kts | 18° |
| 2026-05-07 10:05 | 37.55852 | -5.68357 | 33940 ft | 454 kts | 19° |
| 2026-05-07 10:06 | 37.61566 | -5.64863 | 33946 ft | 461 kts | 19° |
| 2026-05-07 10:06 | 37.67391 | -5.61326 | 33947 ft | 468 kts | 19° |
| 2026-05-07 10:07 | 37.73223 | -5.57779 | 33937 ft | 469 kts | 19° |
| 2026-05-07 10:07 | 37.79115 | -5.54188 | 33935 ft | 470 kts | 19° |
| 2026-05-07 10:08 | 37.85004 | -5.50594 | 33944 ft | 470 kts | 19° |
| 2026-05-07 10:08 | 37.90901 | -5.46989 | 33935 ft | 470 kts | 19° |
| 2026-05-07 10:09 | 37.96789 | -5.43382 | 33938 ft | 469 kts | 19° |
| 2026-05-07 10:09 | 38.01678 | -5.40383 | 33926 ft | 469 kts | 19° |
| 2026-05-07 10:10 | 38.07547 | -5.36778 | 33960 ft | 468 kts | 20° |
| 2026-05-07 10:10 | 38.13421 | -5.33163 | 33943 ft | 468 kts | 20° |
| 2026-05-07 10:11 | 38.19321 | -5.29528 | 33935 ft | 475 kts | 21° |
| 2026-05-07 10:11 | 38.25319 | -5.25825 | 33937 ft | 481 kts | 21° |
| 2026-05-07 10:12 | 38.31361 | -5.22083 | 33921 ft | 483 kts | 21° |
| 2026-05-07 10:12 | 38.37414 | -5.18327 | 33915 ft | 484 kts | 21° |
| 2026-05-07 10:13 | 38.43472 | -5.14564 | 33914 ft | 484 kts | 21° |
| 2026-05-07 10:13 | 38.49591 | -5.11308 | 33907 ft | 474 kts | 8° |
| 2026-05-07 10:14 | 38.56033 | -5.10379 | 33932 ft | 460 kts | 352° |
| 2026-05-07 10:14 | 38.62394 | -5.11062 | 33914 ft | 458 kts | 350° |
| 2026-05-07 10:15 | 38.68754 | -5.11795 | 33909 ft | 458 kts | 350° |
| 2026-05-07 10:15 | 38.75106 | -5.12464 | 33909 ft | 458 kts | 351° |
| 2026-05-07 10:16 | 38.81460 | -5.13109 | 33914 ft | 458 kts | 351° |
| 2026-05-07 10:16 | 38.87823 | -5.13755 | 33909 ft | 459 kts | 351° |
| 2026-05-07 10:17 | 38.94192 | -5.14406 | 33913 ft | 459 kts | 351° |
| 2026-05-07 10:17 | 39.00597 | -5.13737 | 33917 ft | 471 kts | 13° |
| 2026-05-07 10:17 | 39.03657 | -5.12164 | 33914 ft | 478 kts | 26° |
| 2026-05-07 10:18 | 39.06462 | -5.09949 | 33932 ft | 480 kts | 30° |
| 2026-05-07 10:18 | 39.12076 | -5.05170 | 33914 ft | 481 kts | 31° |
| 2026-05-07 10:19 | 39.17638 | -5.00437 | 33911 ft | 482 kts | 30° |
| 2026-05-07 10:19 | 39.23271 | -4.95721 | 33912 ft | 482 kts | 30° |
| 2026-05-07 10:20 | 39.28923 | -4.91019 | 33913 ft | 484 kts | 31° |
| 2026-05-07 10:20 | 39.34602 | -4.86288 | 33929 ft | 486 kts | 31° |
| 2026-05-07 10:21 | 39.40302 | -4.81526 | 33923 ft | 489 kts | 31° |
| 2026-05-07 10:21 | 39.46026 | -4.76734 | 33922 ft | 491 kts | 31° |
| 2026-05-07 10:22 | 39.51770 | -4.71913 | 33938 ft | 493 kts | 32° |
| 2026-05-07 10:22 | 39.57492 | -4.67102 | 33927 ft | 493 kts | 32° |
| 2026-05-07 10:23 | 39.63255 | -4.62247 | 33923 ft | 493 kts | 32° |
| 2026-05-07 10:23 | 39.69006 | -4.57392 | 33907 ft | 492 kts | 32° |
| 2026-05-07 10:24 | 39.74746 | -4.52537 | 33915 ft | 492 kts | 33° |
| 2026-05-07 10:24 | 39.80486 | -4.47671 | 33924 ft | 492 kts | 33° |
| 2026-05-07 10:25 | 39.86225 | -4.42796 | 33928 ft | 493 kts | 33° |
| 2026-05-07 10:25 | 39.91940 | -4.37932 | 33927 ft | 494 kts | 33° |
| 2026-05-07 10:26 | 39.97737 | -4.33087 | 33921 ft | 496 kts | 28° |
| 2026-05-07 10:26 | 40.03955 | -4.29153 | 33928 ft | 497 kts | 24° |
| 2026-05-07 10:27 | 40.10273 | -4.25469 | 33931 ft | 498 kts | 24° |
| 2026-05-07 10:27 | 40.16585 | -4.21718 | 33929 ft | 498 kts | 24° |
| 2026-05-07 10:28 | 40.22878 | -4.17891 | 33929 ft | 499 kts | 25° |
| 2026-05-07 10:28 | 40.29161 | -4.14034 | 33936 ft | 498 kts | 25° |
| 2026-05-07 10:29 | 40.35435 | -4.10176 | 33948 ft | 497 kts | 25° |
| 2026-05-07 10:29 | 40.41704 | -4.06319 | 33951 ft | 497 kts | 25° |
| 2026-05-07 10:30 | 40.51083 | -4.00535 | 33953 ft | 496 kts | 25° |
| 2026-05-07 10:30 | 40.57283 | -3.96702 | 33962 ft | 495 kts | 25° |
| 2026-05-07 10:31 | 40.63518 | -3.92839 | 33961 ft | 495 kts | 25° |
| 2026-05-07 10:31 | 40.69740 | -3.88975 | 33957 ft | 494 kts | 25° |
| 2026-05-07 10:32 | 40.75963 | -3.85104 | 33967 ft | 494 kts | 25° |
| 2026-05-07 10:32 | 40.82180 | -3.81227 | 33953 ft | 494 kts | 25° |
| 2026-05-07 10:33 | 40.88396 | -3.77344 | 33959 ft | 494 kts | 25° |
| 2026-05-07 10:33 | 40.94610 | -3.73453 | 33961 ft | 495 kts | 25° |
| 2026-05-07 10:34 | 41.00834 | -3.69548 | 33964 ft | 495 kts | 25° |
| 2026-05-07 10:34 | 41.07063 | -3.65631 | 33960 ft | 496 kts | 25° |
| 2026-05-07 10:35 | 41.13297 | -3.61703 | 33964 ft | 496 kts | 25° |
| 2026-05-07 10:35 | 41.19559 | -3.57986 | 33959 ft | 495 kts | 22° |
| 2026-05-07 10:36 | 41.25950 | -3.54566 | 33951 ft | 495 kts | 21° |
| 2026-05-07 10:36 | 41.32340 | -3.51133 | 33950 ft | 494 kts | 22° |
| 2026-05-07 10:37 | 41.38696 | -3.47652 | 33937 ft | 494 kts | 22° |
| 2026-05-07 10:37 | 41.45051 | -3.44150 | 33943 ft | 493 kts | 22° |
| 2026-05-07 10:38 | 41.51385 | -3.40659 | 33935 ft | 492 kts | 22° |
| 2026-05-07 10:38 | 41.57714 | -3.37171 | 33928 ft | 492 kts | 22° |
| 2026-05-07 10:39 | 41.64043 | -3.33676 | 33931 ft | 491 kts | 22° |
| 2026-05-07 10:39 | 41.70363 | -3.30177 | 33929 ft | 492 kts | 22° |
| 2026-05-07 10:40 | 41.76689 | -3.26667 | 33934 ft | 492 kts | 22° |
| 2026-05-07 10:40 | 41.82974 | -3.23172 | 33938 ft | 492 kts | 22° |
| 2026-05-07 10:41 | 41.89296 | -3.19649 | 33934 ft | 492 kts | 22° |
| 2026-05-07 10:41 | 41.95624 | -3.16115 | 33946 ft | 492 kts | 22° |
| 2026-05-07 10:42 | 42.01947 | -3.12576 | 33938 ft | 492 kts | 22° |
| 2026-05-07 10:42 | 42.08272 | -3.09028 | 33935 ft | 493 kts | 22° |
| 2026-05-07 10:43 | 42.14603 | -3.05469 | 33935 ft | 492 kts | 22° |
| 2026-05-07 10:43 | 42.20924 | -3.01908 | 33943 ft | 491 kts | 23° |
| 2026-05-07 10:44 | 42.27229 | -2.98348 | 33943 ft | 490 kts | 23° |
| 2026-05-07 10:44 | 42.33515 | -2.94791 | 33956 ft | 489 kts | 23° |
| 2026-05-07 10:45 | 42.39795 | -2.91230 | 33947 ft | 489 kts | 23° |
| 2026-05-07 10:45 | 42.45903 | -2.87219 | 33948 ft | 487 kts | 34° |
| 2026-05-07 10:46 | 42.51085 | -2.81386 | 33948 ft | 484 kts | 44° |
| 2026-05-07 10:46 | 42.56063 | -2.75234 | 33952 ft | 484 kts | 44° |
| 2026-05-07 10:47 | 42.61076 | -2.69102 | 33961 ft | 485 kts | 43° |
| 2026-05-07 10:47 | 42.66085 | -2.63030 | 33955 ft | 486 kts | 43° |
| 2026-05-07 10:48 | 42.71137 | -2.56910 | 33961 ft | 487 kts | 43° |
| 2026-05-07 10:48 | 42.76200 | -2.50760 | 33962 ft | 489 kts | 43° |
| 2026-05-07 10:49 | 42.81271 | -2.44581 | 33955 ft | 489 kts | 43° |
| 2026-05-07 10:49 | 42.86345 | -2.38385 | 33956 ft | 490 kts | 43° |
| 2026-05-07 10:50 | 42.91431 | -2.32158 | 33949 ft | 491 kts | 43° |
| 2026-05-07 10:50 | 42.95654 | -2.26977 | 33943 ft | 491 kts | 43° |
| 2026-05-07 10:51 | 43.00725 | -2.20740 | 33963 ft | 490 kts | 43° |
| 2026-05-07 10:51 | 43.05782 | -2.14483 | 33955 ft | 490 kts | 43° |
| 2026-05-07 10:52 | 43.10843 | -2.08211 | 33945 ft | 490 kts | 43° |
| 2026-05-07 10:52 | 43.15900 | -2.01941 | 33959 ft | 490 kts | 43° |
| 2026-05-07 10:53 | 43.20955 | -1.95659 | 33954 ft | 491 kts | 43° |
| 2026-05-07 10:53 | 43.26008 | -1.89363 | 33939 ft | 490 kts | 43° |
| 2026-05-07 10:54 | 43.31096 | -1.83153 | 33961 ft | 489 kts | 37° |
| 2026-05-07 10:54 | 43.36921 | -1.78413 | 33975 ft | 486 kts | 27° |
| 2026-05-07 10:55 | 43.42752 | -1.73695 | 33979 ft | 486 kts | 33° |
| 2026-05-07 10:55 | 43.48369 | -1.68487 | 33981 ft | 486 kts | 34° |
| 2026-05-07 10:56 | 43.53936 | -1.63303 | 33996 ft | 485 kts | 33° |
| 2026-05-07 10:56 | 43.59560 | -1.58154 | 33975 ft | 485 kts | 33° |
| 2026-05-07 10:57 | 43.65202 | -1.53026 | 33975 ft | 485 kts | 33° |
| 2026-05-07 10:57 | 43.70843 | -1.47894 | 33973 ft | 485 kts | 33° |
| 2026-05-07 10:58 | 43.76476 | -1.42754 | 33980 ft | 485 kts | 33° |
| 2026-05-07 10:58 | 43.82098 | -1.37608 | 33982 ft | 484 kts | 33° |
| 2026-05-07 10:59 | 43.87722 | -1.32448 | 33990 ft | 485 kts | 33° |
| 2026-05-07 10:59 | 43.93348 | -1.27275 | 33981 ft | 485 kts | 33° |
| 2026-05-07 11:00 | 43.98973 | -1.22091 | 33990 ft | 485 kts | 33° |
| 2026-05-07 11:00 | 44.04604 | -1.16889 | 33998 ft | 486 kts | 33° |
| 2026-05-07 11:01 | 44.10210 | -1.11697 | 33993 ft | 486 kts | 33° |
| 2026-05-07 11:01 | 44.15846 | -1.06467 | 34004 ft | 487 kts | 33° |
| 2026-05-07 11:02 | 44.21497 | -1.01210 | 33986 ft | 489 kts | 33° |
| 2026-05-07 11:02 | 44.27148 | -0.95940 | 33985 ft | 489 kts | 33° |
| 2026-05-07 11:03 | 44.32800 | -0.90656 | 33998 ft | 488 kts | 33° |
| 2026-05-07 11:03 | 44.38448 | -0.85367 | 34002 ft | 489 kts | 32° |
| 2026-05-07 11:04 | 44.44443 | -0.80950 | 34018 ft | 486 kts | 21° |
| 2026-05-07 11:04 | 44.50687 | -0.77264 | 34067 ft | 489 kts | 21° |
| 2026-05-07 11:05 | 44.53825 | -0.75424 | 34271 ft | 488 kts | 21° |
| 2026-05-07 11:05 | 44.56943 | -0.73570 | 34586 ft | 486 kts | 21° |
| 2026-05-07 11:05 | 44.60049 | -0.71699 | 34900 ft | 484 kts | 21° |
| 2026-05-07 11:05 | 44.63130 | -0.69824 | 35200 ft | 482 kts | 21° |
| 2026-05-07 11:06 | 44.66203 | -0.67941 | 35475 ft | 482 kts | 22° |
| 2026-05-07 11:06 | 44.69286 | -0.66045 | 35694 ft | 483 kts | 22° |
| 2026-05-07 11:06 | 44.72358 | -0.64152 | 35933 ft | 481 kts | 22° |
| 2026-05-07 11:06 | 44.75426 | -0.62259 | 36022 ft | 483 kts | 22° |
| 2026-05-07 11:07 | 44.81600 | -0.58447 | 36018 ft | 484 kts | 22° |
| 2026-05-07 11:07 | 44.87742 | -0.54647 | 36014 ft | 480 kts | 22° |
| 2026-05-07 11:08 | 44.93846 | -0.50862 | 36015 ft | 478 kts | 22° |
| 2026-05-07 11:08 | 44.99932 | -0.47081 | 36023 ft | 477 kts | 22° |
| 2026-05-07 11:09 | 45.05964 | -0.43325 | 36006 ft | 476 kts | 22° |
| 2026-05-07 11:09 | 45.12033 | -0.39536 | 36015 ft | 477 kts | 22° |
| 2026-05-07 11:10 | 45.18109 | -0.35735 | 36014 ft | 478 kts | 22° |
| 2026-05-07 11:10 | 45.24213 | -0.31907 | 36007 ft | 480 kts | 22° |
| 2026-05-07 11:11 | 45.30333 | -0.28059 | 36012 ft | 481 kts | 22° |
| 2026-05-07 11:11 | 45.36469 | -0.24193 | 36008 ft | 482 kts | 22° |
| 2026-05-07 11:12 | 45.42603 | -0.20317 | 36018 ft | 483 kts | 22° |
| 2026-05-07 11:12 | 45.48753 | -0.16424 | 36012 ft | 483 kts | 22° |
| 2026-05-07 11:13 | 45.54899 | -0.12522 | 36024 ft | 484 kts | 22° |
| 2026-05-07 11:13 | 45.61060 | -0.08603 | 36022 ft | 484 kts | 22° |
| 2026-05-07 11:14 | 45.67206 | -0.04682 | 36010 ft | 483 kts | 22° |
| 2026-05-07 11:14 | 45.73337 | -0.00763 | 35996 ft | 482 kts | 22° |
| 2026-05-07 11:15 | 45.79445 | 0.03153 | 36020 ft | 480 kts | 22° |
| 2026-05-07 11:15 | 45.85527 | 0.07059 | 36014 ft | 478 kts | 22° |
| 2026-05-07 11:16 | 45.91559 | 0.10943 | 36014 ft | 477 kts | 22° |
| 2026-05-07 11:16 | 45.97609 | 0.14849 | 36024 ft | 476 kts | 22° |
| 2026-05-07 11:17 | 46.03655 | 0.18760 | 36012 ft | 476 kts | 22° |
| 2026-05-07 11:17 | 46.09689 | 0.22674 | 36015 ft | 475 kts | 22° |
| 2026-05-07 11:18 | 46.15722 | 0.26596 | 36008 ft | 475 kts | 22° |
| 2026-05-07 11:18 | 46.21750 | 0.30525 | 36014 ft | 475 kts | 22° |
| 2026-05-07 11:19 | 46.27781 | 0.34466 | 36018 ft | 475 kts | 22° |
| 2026-05-07 11:19 | 46.33806 | 0.38412 | 36021 ft | 475 kts | 22° |
| 2026-05-07 11:20 | 46.39832 | 0.42369 | 36027 ft | 475 kts | 22° |
| 2026-05-07 11:20 | 46.45819 | 0.46309 | 36019 ft | 475 kts | 22° |
| 2026-05-07 11:21 | 46.51839 | 0.50281 | 36025 ft | 475 kts | 22° |
| 2026-05-07 11:21 | 46.57964 | 0.53882 | 36025 ft | 472 kts | 12° |
| 2026-05-07 11:22 | 46.64367 | 0.55973 | 36021 ft | 471 kts | 9° |
| 2026-05-07 11:22 | 46.70777 | 0.57964 | 36026 ft | 471 kts | 10° |
| 2026-05-07 11:23 | 46.77185 | 0.60039 | 36028 ft | 471 kts | 10° |
| 2026-05-07 11:23 | 46.83578 | 0.62158 | 36036 ft | 471 kts | 11° |
| 2026-05-07 11:24 | 46.89975 | 0.64288 | 36033 ft | 471 kts | 11° |
| 2026-05-07 11:24 | 46.96332 | 0.66406 | 36031 ft | 471 kts | 11° |
| 2026-05-07 11:25 | 47.02723 | 0.68537 | 36039 ft | 471 kts | 11° |
| 2026-05-07 11:25 | 47.09183 | 0.69923 | 36044 ft | 468 kts | 1° |
| 2026-05-07 11:26 | 47.15686 | 0.70467 | 36037 ft | 468 kts | 0° |
| 2026-05-07 11:26 | 47.22193 | 0.71031 | 36046 ft | 468 kts | 1° |
| 2026-05-07 11:27 | 47.28688 | 0.71690 | 36041 ft | 468 kts | 1° |
| 2026-05-07 11:27 | 47.35183 | 0.72378 | 36045 ft | 468 kts | 2° |
| 2026-05-07 11:28 | 47.41678 | 0.73065 | 36059 ft | 468 kts | 2° |
| 2026-05-07 11:28 | 47.48169 | 0.73769 | 36049 ft | 468 kts | 4° |
| 2026-05-07 11:29 | 47.54509 | 0.76072 | 36062 ft | 471 kts | 17° |
| 2026-05-07 11:29 | 47.60712 | 0.79262 | 36050 ft | 471 kts | 17° |
| 2026-05-07 11:30 | 47.66922 | 0.82404 | 36043 ft | 471 kts | 17° |
| 2026-05-07 11:30 | 47.73112 | 0.85464 | 36041 ft | 471 kts | 16° |
| 2026-05-07 11:31 | 47.79340 | 0.88537 | 36046 ft | 471 kts | 17° |
| 2026-05-07 11:31 | 47.84510 | 0.91100 | 36049 ft | 471 kts | 17° |
| 2026-05-07 11:32 | 47.93824 | 0.95802 | 36049 ft | 471 kts | 17° |
| 2026-05-07 11:33 | 48.00027 | 0.98952 | 36050 ft | 470 kts | 17° |
| 2026-05-07 11:33 | 48.06218 | 1.02099 | 36055 ft | 470 kts | 17° |
| 2026-05-07 11:34 | 48.12407 | 1.05252 | 36051 ft | 469 kts | 17° |
| 2026-05-07 11:34 | 48.18583 | 1.08406 | 36050 ft | 469 kts | 17° |
| 2026-05-07 11:35 | 48.24754 | 1.11559 | 36064 ft | 468 kts | 17° |
| 2026-05-07 11:35 | 48.30931 | 1.14704 | 36052 ft | 468 kts | 17° |
| 2026-05-07 11:36 | 48.37053 | 1.17829 | 36054 ft | 468 kts | 17° |
| 2026-05-07 11:36 | 48.43218 | 1.20987 | 36059 ft | 467 kts | 17° |
| 2026-05-07 11:37 | 48.49378 | 1.24152 | 36055 ft | 467 kts | 17° |
| 2026-05-07 11:37 | 48.55532 | 1.27320 | 36053 ft | 467 kts | 17° |
| 2026-05-07 11:38 | 48.61696 | 1.30438 | 36056 ft | 467 kts | 17° |
| 2026-05-07 11:38 | 48.67861 | 1.33534 | 36061 ft | 467 kts | 17° |
| 2026-05-07 11:39 | 48.74025 | 1.36645 | 36060 ft | 467 kts | 17° |
| 2026-05-07 11:39 | 48.80189 | 1.39772 | 36063 ft | 467 kts | 17° |
| 2026-05-07 11:40 | 48.86349 | 1.42906 | 36069 ft | 467 kts | 17° |
| 2026-05-07 11:40 | 48.92477 | 1.46031 | 36059 ft | 467 kts | 17° |
| 2026-05-07 11:41 | 48.98704 | 1.49025 | 36061 ft | 465 kts | 10° |
| 2026-05-07 11:41 | 49.05040 | 1.50519 | 36072 ft | 464 kts | 6° |
| 2026-05-07 11:42 | 49.11432 | 1.51864 | 36078 ft | 464 kts | 6° |
| 2026-05-07 11:42 | 49.17821 | 1.53343 | 36069 ft | 464 kts | 7° |
| 2026-05-07 11:43 | 49.24149 | 1.55299 | 36061 ft | 466 kts | 19° |
| 2026-05-07 11:43 | 49.27086 | 1.57417 | 36068 ft | 468 kts | 30° |
| 2026-05-07 11:43 | 49.29743 | 1.60312 | 36075 ft | 469 kts | 41° |
| 2026-05-07 11:44 | 49.34446 | 1.67254 | 36065 ft | 470 kts | 44° |
| 2026-05-07 11:44 | 49.39118 | 1.74269 | 36069 ft | 470 kts | 43° |
| 2026-05-07 11:45 | 49.43847 | 1.81242 | 36058 ft | 471 kts | 43° |
| 2026-05-07 11:45 | 49.48579 | 1.88190 | 36070 ft | 471 kts | 43° |
| 2026-05-07 11:46 | 49.53310 | 1.95164 | 36081 ft | 471 kts | 43° |
| 2026-05-07 11:46 | 49.58046 | 2.02164 | 36083 ft | 472 kts | 43° |
| 2026-05-07 11:47 | 49.62751 | 2.09139 | 36070 ft | 472 kts | 43° |
| 2026-05-07 11:47 | 49.67480 | 2.16169 | 36073 ft | 472 kts | 43° |
| 2026-05-07 11:48 | 49.72208 | 2.23219 | 36064 ft | 472 kts | 43° |
| 2026-05-07 11:48 | 49.76940 | 2.30294 | 36068 ft | 472 kts | 43° |
| 2026-05-07 11:48 | 49.79304 | 2.33836 | 35899 ft | 475 kts | 43° |
| 2026-05-07 11:49 | 49.81697 | 2.37428 | 35317 ft | 479 kts | 43° |
| 2026-05-07 11:49 | 49.84083 | 2.41013 | 34710 ft | 477 kts | 43° |
| 2026-05-07 11:49 | 49.86462 | 2.44595 | 34080 ft | 477 kts | 43° |
| 2026-05-07 11:49 | 49.88840 | 2.48178 | 33310 ft | 477 kts | 43° |
| 2026-05-07 11:50 | 49.91217 | 2.51767 | 32593 ft | 477 kts | 43° |
| 2026-05-07 11:50 | 49.93591 | 2.55355 | 31916 ft | 476 kts | 43° |
| 2026-05-07 11:50 | 49.95964 | 2.58945 | 31205 ft | 476 kts | 43° |
| 2026-05-07 11:50 | 49.98333 | 2.62544 | 30478 ft | 477 kts | 43° |
| 2026-05-07 11:51 | 50.00700 | 2.66153 | 29654 ft | 477 kts | 44° |
| 2026-05-07 11:51 | 50.03039 | 2.69725 | 28817 ft | 477 kts | 44° |
| 2026-05-07 11:51 | 50.05399 | 2.73338 | 27990 ft | 476 kts | 44° |
| 2026-05-07 11:51 | 50.07748 | 2.76938 | 27421 ft | 469 kts | 44° |
| 2026-05-07 11:52 | 50.10063 | 2.80490 | 26798 ft | 465 kts | 44° |
| 2026-05-07 11:52 | 50.12352 | 2.84006 | 26219 ft | 459 kts | 44° |
| 2026-05-07 11:52 | 50.14617 | 2.87491 | 25641 ft | 455 kts | 44° |
| 2026-05-07 11:52 | 50.16855 | 2.90937 | 25085 ft | 451 kts | 44° |
| 2026-05-07 11:53 | 50.19080 | 2.94368 | 24525 ft | 447 kts | 44° |
| 2026-05-07 11:53 | 50.21281 | 2.97767 | 23968 ft | 443 kts | 44° |
| 2026-05-07 11:53 | 50.23463 | 3.01143 | 23369 ft | 440 kts | 44° |
| 2026-05-07 11:53 | 50.25627 | 3.04495 | 22731 ft | 436 kts | 44° |
| 2026-05-07 11:54 | 50.27770 | 3.07818 | 22171 ft | 431 kts | 44° |
| 2026-05-07 11:54 | 50.29887 | 3.11105 | 21603 ft | 427 kts | 44° |
| 2026-05-07 11:54 | 50.31986 | 3.14369 | 21059 ft | 423 kts | 44° |
| 2026-05-07 11:54 | 50.34065 | 3.17607 | 20508 ft | 420 kts | 44° |
| 2026-05-07 11:55 | 50.36127 | 3.20821 | 19972 ft | 416 kts | 44° |
| 2026-05-07 11:55 | 50.38173 | 3.24015 | 19441 ft | 413 kts | 44° |
| 2026-05-07 11:55 | 50.40200 | 3.27182 | 18912 ft | 410 kts | 44° |
| 2026-05-07 11:55 | 50.42214 | 3.30327 | 18383 ft | 407 kts | 44° |
| 2026-05-07 11:56 | 50.44220 | 3.33453 | 17790 ft | 405 kts | 44° |
| 2026-05-07 11:56 | 50.46210 | 3.36558 | 17219 ft | 402 kts | 44° |
| 2026-05-07 11:56 | 50.48183 | 3.39639 | 16677 ft | 398 kts | 44° |
| 2026-05-07 11:56 | 50.50139 | 3.42699 | 16156 ft | 395 kts | 44° |
| 2026-05-07 11:57 | 50.52073 | 3.45731 | 15631 ft | 391 kts | 45° |
| 2026-05-07 11:57 | 50.53812 | 3.48995 | 15104 ft | 389 kts | 56° |
| 2026-05-07 11:57 | 50.55116 | 3.52685 | 14769 ft | 383 kts | 66° |
| 2026-05-07 11:57 | 50.56002 | 3.56617 | 14532 ft | 383 kts | 73° |
| 2026-05-07 11:58 | 50.56760 | 3.60678 | 14303 ft | 390 kts | 74° |
| 2026-05-07 11:58 | 50.57511 | 3.64792 | 14060 ft | 392 kts | 74° |
| 2026-05-07 11:58 | 50.58253 | 3.68846 | 13812 ft | 390 kts | 73° |
| 2026-05-07 11:58 | 50.59005 | 3.72931 | 13548 ft | 387 kts | 73° |
| 2026-05-07 11:59 | 50.59757 | 3.76985 | 13271 ft | 385 kts | 73° |
| 2026-05-07 11:59 | 50.60511 | 3.81029 | 13018 ft | 384 kts | 73° |
| 2026-05-07 11:59 | 50.61262 | 3.85055 | 12744 ft | 383 kts | 73° |
| 2026-05-07 11:59 | 50.62009 | 3.89065 | 12485 ft | 381 kts | 73° |
| 2026-05-07 12:00 | 50.62756 | 3.93072 | 12223 ft | 380 kts | 73° |
| 2026-05-07 12:00 | 50.63497 | 3.97059 | 11965 ft | 379 kts | 74° |
| 2026-05-07 12:00 | 50.64233 | 4.01033 | 11605 ft | 377 kts | 74° |
| 2026-05-07 12:00 | 50.64966 | 4.04993 | 11162 ft | 372 kts | 74° |
| 2026-05-07 12:01 | 50.65682 | 4.08875 | 10787 ft | 366 kts | 74° |
| 2026-05-07 12:01 | 50.66385 | 4.12690 | 10429 ft | 359 kts | 74° |
| 2026-05-07 12:01 | 50.67075 | 4.16441 | 9984 ft | 356 kts | 74° |
| 2026-05-07 12:01 | 50.67753 | 4.20137 | 9854 ft | 343 kts | 74° |
| 2026-05-07 12:02 | 50.68403 | 4.23689 | 9744 ft | 331 kts | 74° |
| 2026-05-07 12:02 | 50.68975 | 4.27137 | 9662 ft | 320 kts | 83° |
| 2026-05-07 12:02 | 50.68910 | 4.30560 | 9581 ft | 307 kts | 99° |
| 2026-05-07 12:02 | 50.68547 | 4.33798 | 9468 ft | 292 kts | 102° |
| 2026-05-07 12:03 | 50.68168 | 4.36855 | 9306 ft | 278 kts | 102° |
| 2026-05-07 12:03 | 50.67796 | 4.39823 | 8921 ft | 274 kts | 102° |
| 2026-05-07 12:03 | 50.67423 | 4.42757 | 8468 ft | 272 kts | 102° |
| 2026-05-07 12:03 | 50.67047 | 4.45678 | 8032 ft | 271 kts | 102° |
| 2026-05-07 12:04 | 50.66671 | 4.48580 | 7594 ft | 269 kts | 102° |
| 2026-05-07 12:04 | 50.66296 | 4.51463 | 7191 ft | 268 kts | 102° |
| 2026-05-07 12:04 | 50.65921 | 4.54324 | 6876 ft | 265 kts | 102° |
| 2026-05-07 12:04 | 50.65518 | 4.57132 | 6481 ft | 262 kts | 110° |
| 2026-05-07 12:05 | 50.64685 | 4.59620 | 6085 ft | 253 kts | 123° |
| 2026-05-07 12:05 | 50.63762 | 4.61937 | 5625 ft | 247 kts | 122° |
| 2026-05-07 12:05 | 50.62858 | 4.64209 | 5170 ft | 242 kts | 122° |
| 2026-05-07 12:05 | 50.61964 | 4.66426 | 4737 ft | 238 kts | 122° |
| 2026-05-07 12:06 | 50.61074 | 4.68564 | 4297 ft | 235 kts | 122° |
| 2026-05-07 12:06 | 50.60180 | 4.70694 | 3869 ft | 232 kts | 122° |
| 2026-05-07 12:06 | 50.59215 | 4.72705 | 3404 ft | 230 kts | 137° |
| 2026-05-07 12:06 | 50.57862 | 4.74029 | 3066 ft | 226 kts | 151° |
| 2026-05-07 12:07 | 50.56474 | 4.75016 | 2993 ft | 213 kts | 164° |
| 2026-05-07 12:07 | 50.55036 | 4.74796 | 2992 ft | 212 kts | 209° |
| 2026-05-07 12:07 | 50.54065 | 4.73103 | 2997 ft | 212 kts | 246° |
| 2026-05-07 12:07 | 50.53494 | 4.70969 | 2998 ft | 212 kts | 245° |
| 2026-05-07 12:08 | 50.52867 | 4.68873 | 2983 ft | 212 kts | 245° |
| 2026-05-07 12:08 | 50.52252 | 4.66797 | 2976 ft | 205 kts | 245° |
| 2026-05-07 12:08 | 50.51672 | 4.64820 | 2980 ft | 196 kts | 245° |
| 2026-05-07 12:08 | 50.51101 | 4.62861 | 2818 ft | 199 kts | 245° |
| 2026-05-07 12:09 | 50.50525 | 4.60890 | 2580 ft | 198 kts | 245° |
| 2026-05-07 12:09 | 50.49953 | 4.58930 | 2295 ft | 194 kts | 245° |
| 2026-05-07 12:09 | 50.49407 | 4.57055 | 2014 ft | 184 kts | 245° |
| 2026-05-07 12:09 | 50.48891 | 4.55283 | 1778 ft | 172 kts | 245° |
| 2026-05-07 12:10 | 50.48414 | 4.53648 | 1590 ft | 160 kts | 245° |
| 2026-05-07 12:10 | 50.47962 | 4.52082 | 1327 ft | 154 kts | 246° |
| 2026-05-07 12:10 | 50.47524 | 4.50571 | 1165 ft | 153 kts | 245° |
| 2026-05-07 12:10 | 50.47068 | 4.49015 | 955 ft | 158 kts | 246° |
| 2026-05-07 12:11 | 50.46611 | 4.47443 | 692 ft | 159 kts | 247° |
| 2026-05-07 12:11 | 50.46168 | 4.45910 | 592 ft | 145 kts | 245° |
| 2026-05-07 12:11 | 50.45838 | 4.44780 | 598 ft | 82 kts | 245° |
| 2026-05-07 12:11 | 50.45690 | 4.44271 | 594 ft | 25 kts | 245° |
| 2026-05-07 12:12 | 50.45632 | 4.44029 | 593 ft | 22 kts | 280° |
| 2026-05-07 12:12 | 50.45701 | 4.44019 | 593 ft | 11 kts | 45° |
| 2026-05-07 12:12 | 50.45751 | 4.44110 | 594 ft | 11 kts | 51° |
| 2026-05-07 12:12 | 50.45798 | 4.44203 | 597 ft | 11 kts | 53° |
| 2026-05-07 12:13 | 50.45827 | 4.44264 | 598 ft | 10 kts | 53° |
| 2026-05-07 12:13 | 50.45870 | 4.44354 | 598 ft | 10 kts | 53° |
| 2026-05-07 12:13 | 50.45912 | 4.44440 | 598 ft | 10 kts | 52° |
| 2026-05-07 12:13 | 50.45950 | 4.44546 | 599 ft | 15 kts | 66° |
| 2026-05-07 12:14 | 50.46011 | 4.44759 | 595 ft | 26 kts | 65° |
| 2026-05-07 12:14 | 50.46087 | 4.45014 | 595 ft | 25 kts | 64° |
| 2026-05-07 12:14 | 50.46160 | 4.45250 | 598 ft | 23 kts | 64° |
| 2026-05-07 12:14 | 50.46222 | 4.45479 | 598 ft | 22 kts | 68° |
| 2026-05-07 12:15 | 50.46286 | 4.45700 | 596 ft | 23 kts | 66° |
| 2026-05-07 12:15 | 50.46350 | 4.45921 | 596 ft | 22 kts | 66° |
| 2026-05-07 12:15 | 50.46418 | 4.46150 | 590 ft | 25 kts | 66° |
| 2026-05-07 12:15 | 50.46487 | 4.46391 | 588 ft | 25 kts | 65° |
| 2026-05-07 12:16 | 50.46556 | 4.46629 | 590 ft | 23 kts | 65° |
| 2026-05-07 12:16 | 50.46609 | 4.46809 | 591 ft | 14 kts | 65° |
| 2026-05-07 12:16 | 50.46648 | 4.46942 | 593 ft | 13 kts | 66° |
| 2026-05-07 12:16 | 50.46688 | 4.47081 | 591 ft | 16 kts | 66° |
| 2026-05-07 12:17 | 50.46736 | 4.47248 | 590 ft | 17 kts | 65° |
| 2026-05-07 12:17 | 50.46787 | 4.47354 | 588 ft | 11 kts | 7° |
| 2026-05-07 12:17 | 50.46840 | 4.47273 | 585 ft | 12 kts | 261° |
| 2026-05-07 12:17 | 50.46812 | 4.47170 | 586 ft | 6 kts | 245° |
| 2026-05-07 12:18 | 50.46824 | 4.47133 | 584 ft | 6 kts | 321° |
| 2026-05-07 12:18 | 50.46859 | 4.47107 | 584 ft | 3 kts | 335° |
| 2026-05-07 12:18 | 50.46871 | 4.47098 | 584 ft | 0 kts | 335° |